Time;durP1;ratioP1;P1;durP2;ratioP2;P2;SDS_P1;SDS_P2;PMS_P1;PMS_P2;Temp;Humidity;BMP_temperature;BMP_pressure;BME280_temperature;BME280_humidity;BME280_pressure;Samples;Min_cycle;Max_cycle;Signal;HPM_P1;HPM_P2
2023/03/19 00:01:22;;;;;;;3.67;1.27;;;;;;;8.92;100.00;100902.44;4995742;28;20034;-83
2023/03/19 00:03:47;;;;;;;3.08;1.70;;;;;;;8.94;100.00;100913.91;4961530;28;20045;-83
2023/03/19 00:06:13;;;;;;;3.40;1.60;;;;;;;8.93;100.00;100907.66;4945740;28;20030;-83
2023/03/19 00:08:40;;;;;;;4.27;1.60;;;;;;;8.94;100.00;100905.78;4994847;28;20120;-83
2023/03/19 00:11:08;;;;;;;4.00;1.55;;;;;;;8.97;100.00;100908.06;4995040;28;20466;-83
2023/03/19 00:13:34;;;;;;;3.55;1.83;;;;;;;8.97;100.00;100905.38;4977265;28;20057;-83
2023/03/19 00:16:01;;;;;;;2.63;1.30;;;;;;;8.97;100.00;100909.94;4976928;28;20485;-83
2023/03/19 00:18:27;;;;;;;2.80;1.30;;;;;;;8.95;100.00;100902.03;4977455;28;20031;-83
2023/03/19 00:20:52;;;;;;;6.50;1.40;;;;;;;8.96;100.00;100917.22;4961170;28;20045;-83
2023/03/19 00:23:18;;;;;;;5.30;1.30;;;;;;;8.97;100.00;100908.06;4945090;28;20081;-83
2023/03/19 00:25:43;;;;;;;4.15;1.35;;;;;;;9.01;100.00;100916.63;4994304;28;20266;-82
2023/03/19 00:28:09;;;;;;;3.83;1.70;;;;;;;8.98;100.00;100917.88;4944671;28;20510;-83
2023/03/19 00:30:35;;;;;;;3.33;1.67;;;;;;;9.00;100.00;100917.66;4961275;28;20109;-83
2023/03/19 00:33:01;;;;;;;5.45;1.88;;;;;;;9.01;100.00;100922.88;4977038;28;20038;-82
2023/03/19 00:35:26;;;;;;;2.90;1.60;;;;;;;9.02;100.00;100916.44;4977095;28;20441;-83
2023/03/19 00:37:52;;;;;;;3.43;1.67;;;;;;;9.03;100.00;100919.97;4994871;28;20034;-82
2023/03/19 00:40:17;;;;;;;4.30;2.17;;;;;;;9.04;100.00;100925.16;4960633;28;20451;-83
2023/03/19 00:42:43;;;;;;;4.13;1.87;;;;;;;9.05;100.00;100921.44;4976951;28;20144;-82
2023/03/19 00:45:10;;;;;;;2.72;1.80;;;;;;;9.06;100.00;100908.72;4976833;28;20046;-83
2023/03/19 00:47:36;;;;;;;4.10;2.17;;;;;;;9.05;100.00;100913.31;4961503;28;20046;-83
2023/03/19 00:50:03;;;;;;;3.45;1.90;;;;;;;9.08;100.00;100921.03;4976667;28;20027;-83
2023/03/19 00:52:28;;;;;;;5.55;2.20;;;;;;;9.08;100.00;100922.88;4960671;28;20026;-83
2023/03/19 00:54:54;;;;;;;2.87;1.97;;;;;;;9.08;100.00;100925.59;4976589;28;20050;-83
2023/03/19 00:57:20;;;;;;;5.53;2.40;;;;;;;9.07;100.00;100924.75;4976723;28;20113;-83
2023/03/19 00:59:45;;;;;;;4.40;2.33;;;;;;;9.05;100.00;100918.72;4994138;28;20105;-83
2023/03/19 01:02:11;;;;;;;6.07;2.40;;;;;;;9.04;100.00;100925.16;4960959;28;20039;-82
2023/03/19 01:04:36;;;;;;;3.50;2.30;;;;;;;8.99;100.00;100924.09;4960626;28;20386;-83
2023/03/19 01:07:01;;;;;;;5.15;2.60;;;;;;;8.99;100.00;100924.09;4961468;28;20281;-83
2023/03/19 01:09:27;;;;;;;6.47;2.67;;;;;;;9.00;100.00;100921.19;4960232;28;20570;-83
2023/03/19 01:11:52;;;;;;;5.97;2.70;;;;;;;9.01;100.00;100924.75;4945336;28;20045;-83
2023/03/19 01:14:18;;;;;;;4.37;2.67;;;;;;;9.04;100.00;100922.47;4976622;28;20414;-83
2023/03/19 01:16:43;;;;;;;4.78;2.75;;;;;;;9.04;100.00;100922.47;4976800;28;20364;-83
2023/03/19 01:19:09;;;;;;;5.80;2.63;;;;;;;9.06;100.00;100923.09;4993591;28;20113;-83
2023/03/19 01:21:35;;;;;;;4.27;2.47;;;;;;;9.08;100.00;100928.28;4960692;28;20422;-83
2023/03/19 01:24:01;;;;;;;4.22;2.40;;;;;;;9.09;100.00;100935.38;4977329;28;20055;-83
2023/03/19 01:26:27;;;;;;;4.45;2.42;;;;;;;9.11;100.00;100931.44;4960528;28;20034;-82
2023/03/19 01:28:52;;;;;;;4.23;2.30;;;;;;;9.11;100.00;100933.31;4976497;28;20034;-83
2023/03/19 01:31:18;;;;;;;4.63;2.20;;;;;;;9.10;100.00;100924.34;4977061;28;20042;-83
2023/03/19 01:33:43;;;;;;;4.07;2.55;;;;;;;9.10;100.00;100923.53;4976897;28;20104;-83
2023/03/19 01:36:10;;;;;;;6.10;2.60;;;;;;;9.10;100.00;100920.81;4976687;28;20413;-83
2023/03/19 01:38:35;;;;;;;3.60;2.53;;;;;;;9.11;100.00;100927.91;4976067;28;20060;-82
2023/03/19 01:41:01;;;;;;;5.13;2.70;;;;;;;9.13;100.00;100925.81;4979619;28;20113;-83
2023/03/19 01:43:29;;;;;;;4.95;2.80;;;;;;;9.12;100.00;100919.59;4963607;28;20069;-83
2023/03/19 01:46:23;;;;;;;3.67;2.58;;;;;;;9.11;100.00;100925.22;4980198;28;20383;-83
2023/03/19 01:48:58;;;;;;;4.88;2.60;;;;;;;9.12;100.00;100924.16;4979178;28;20045;-83
2023/03/19 01:51:27;;;;;;;5.00;2.90;;;;;;;9.12;100.00;100922.28;4979923;28;20038;-83
2023/03/19 01:53:59;;;;;;;3.92;2.83;;;;;;;9.14;100.00;100924.78;4997487;28;20493;-83
2023/03/19 01:56:33;;;;;;;4.28;3.13;;;;;;;9.13;100.00;100923.94;4980096;28;20038;-83
2023/03/19 01:59:14;;;;;;;5.57;3.10;;;;;;;9.15;100.00;100918.31;4979958;28;20038;-83
2023/03/19 02:01:48;;;;;;;4.40;3.05;;;;;;;9.16;100.00;100922.72;4980287;28;20062;-83
2023/03/19 02:04:14;;;;;;;7.30;3.10;;;;;;;9.12;100.00;100925.00;4979728;28;20034;-83
2023/03/19 02:06:40;;;;;;;5.22;3.35;;;;;;;9.12;100.00;100924.16;4963846;28;20034;-83
2023/03/19 02:09:07;;;;;;;4.83;3.13;;;;;;;9.08;100.00;100918.31;4979612;28;20037;-83
2023/03/19 02:11:32;;;;;;;6.68;3.22;;;;;;;9.05;100.00;100921.44;4997014;28;20120;-83
2023/03/19 02:13:58;;;;;;;5.65;3.58;;;;;;;9.04;100.00;100924.34;4979569;28;20479;-83
2023/03/19 02:16:24;;;;;;;4.95;3.30;;;;;;;9.02;100.00;100919.13;4979881;28;20557;-83
2023/03/19 02:18:49;;;;;;;5.67;3.50;;;;;;;9.00;100.00;100921.19;4980132;28;20034;-85
2023/03/19 02:21:16;;;;;;;8.05;3.63;;;;;;;9.00;100.00;100923.91;4947045;28;20031;-83
2023/03/19 02:24:33;;;;;;;5.32;3.92;;;;;;;8.99;100.00;100924.97;4979336;28;20034;-83
2023/03/19 02:26:59;;;;;;;5.83;3.50;;;;;;;9.01;100.00;100928.28;4947138;28;20466;-82
2023/03/19 02:29:24;;;;;;;6.07;3.67;;;;;;;9.02;100.00;100931.81;4947103;28;20070;-83
2023/03/19 02:31:50;;;;;;;7.00;4.03;;;;;;;9.03;100.00;100941.63;4947217;28;20035;-82
2023/03/19 02:34:37;;;;;;;6.60;4.10;;;;;;;8.99;100.00;100927.66;4978781;28;20117;-83
2023/03/19 02:37:25;;;;;;;8.13;4.20;;;;;;;9.02;100.00;100929.09;4996622;28;20046;-82
2023/03/19 02:39:56;;;;;;;6.60;4.17;;;;;;;9.00;100.00;100923.91;4977991;28;20081;-83
2023/03/19 02:42:26;;;;;;;5.97;4.30;;;;;;;8.98;100.00;100928.69;4979566;28;20378;-83
2023/03/19 02:44:51;;;;;;;8.75;4.70;;;;;;;8.98;100.00;100936.00;4979114;28;20466;-83
2023/03/19 02:47:17;;;;;;;6.17;4.10;;;;;;;8.97;100.00;100939.72;4963023;28;20034;-83
2023/03/19 02:49:42;;;;;;;8.27;4.88;;;;;;;8.98;100.00;100941.41;4963155;28;20089;-82
2023/03/19 02:52:08;;;;;;;8.40;4.60;;;;;;;9.01;100.00;100946.41;4978122;28;20185;-83
2023/03/19 02:54:33;;;;;;;5.60;4.63;;;;;;;9.03;100.00;100937.03;4962204;28;20052;-83
2023/03/19 02:56:59;;;;;;;10.17;5.10;;;;;;;9.04;100.00;100937.88;4978888;28;20030;-83
2023/03/19 02:59:25;;;;;;;8.25;5.43;;;;;;;9.06;100.00;100939.31;4978428;28;20053;-83
2023/03/19 03:01:50;;;;;;;6.40;4.87;;;;;;;9.06;100.00;100944.72;4978637;28;20113;-83
2023/03/19 03:04:15;;;;;;;9.52;5.10;;;;;;;9.08;100.00;100939.97;4962494;28;20050;-83
2023/03/19 03:06:42;;;;;;;8.47;5.13;;;;;;;9.10;100.00;100951.41;4946733;28;20498;-83
2023/03/19 03:09:09;;;;;;;8.10;5.05;;;;;;;9.13;100.00;100950.19;4978505;28;20029;-82
2023/03/19 03:11:34;;;;;;;8.68;4.40;;;;;;;9.13;100.00;100945.59;4995577;28;20038;-83
2023/03/19 03:14:00;;;;;;;6.45;5.03;;;;;;;9.16;100.00;100943.53;4962410;28;20022;-83
2023/03/19 03:16:26;;;;;;;8.63;4.77;;;;;;;9.16;100.00;100944.34;4979077;28;20034;-83
2023/03/19 03:18:51;;;;;;;9.20;5.05;;;;;;;9.16;100.00;100941.66;4962176;28;20355;-83
2023/03/19 03:21:19;;;;;;;7.47;5.07;;;;;;;9.14;100.00;100943.75;4977958;28;20042;-83
2023/03/19 03:23:44;;;;;;;9.07;5.05;;;;;;;9.11;100.00;100936.84;4962109;28;20038;-83
2023/03/19 03:26:10;;;;;;;9.40;5.60;;;;;;;9.09;100.00;100940.78;4962193;28;20447;-83
2023/03/19 03:28:36;;;;;;;10.07;5.03;;;;;;;9.07;100.00;100948.28;4995562;28;20459;-83
2023/03/19 03:31:02;;;;;;;8.43;4.88;;;;;;;9.02;100.00;100942.63;4962527;28;20033;-83
2023/03/19 03:33:28;;;;;;;8.13;5.03;;;;;;;8.97;100.00;100940.53;4961847;28;20027;-83
2023/03/19 03:35:53;;;;;;;6.55;5.03;;;;;;;8.90;100.00;100935.13;4961895;28;20032;-83
2023/03/19 03:38:19;;;;;;;10.07;5.07;;;;;;;8.85;100.00;100934.06;4977831;28;20030;-83
2023/03/19 03:40:44;;;;;;;9.43;4.78;;;;;;;8.79;100.00;100938.41;4995359;28;20026;-83
2023/03/19 03:43:10;;;;;;;6.27;4.80;;;;;;;8.72;100.00;100935.66;4961732;28;20478;-84
2023/03/19 03:45:36;;;;;;;8.87;5.23;;;;;;;8.69;100.00;100948.75;4962149;28;20043;-83
2023/03/19 03:48:02;;;;;;;6.95;5.40;;;;;;;8.62;100.00;100954.13;4977763;28;20026;-83
2023/03/19 03:50:27;;;;;;;8.05;5.15;;;;;;;8.57;100.00;100946.59;4962305;28;20113;-83
2023/03/19 03:52:53;;;;;;;10.37;5.97;;;;;;;8.64;100.00;100953.94;4977474;28;20046;-83
2023/03/19 03:55:18;;;;;;;8.23;5.80;;;;;;;8.59;100.00;100966.19;4977721;28;20077;-83
2023/03/19 03:57:43;;;;;;;9.53;5.70;;;;;;;8.57;100.00;100962.84;4995076;28;20045;-83
2023/03/19 04:00:10;;;;;;;10.88;5.95;;;;;;;8.53;100.00;100968.84;4961764;28;20294;-83
2023/03/19 04:02:35;;;;;;;10.38;6.10;;;;;;;8.49;100.00;100965.72;4961176;28;20041;-83
2023/03/19 04:05:00;;;;;;;11.35;6.53;;;;;;;8.47;100.00;100967.75;4944780;28;20034;-83
2023/03/19 04:07:29;;;;;;;7.47;5.70;;;;;;;8.40;100.00;100964.16;4961426;28;20042;-83
2023/03/19 04:09:57;;;;;;;8.27;5.93;;;;;;;8.35;100.00;100961.22;4961602;28;20467;-83
2023/03/19 04:12:22;;;;;;;9.00;5.63;;;;;;;8.35;100.00;100964.75;4977067;28;20035;-82
2023/03/19 04:14:47;;;;;;;12.15;6.20;;;;;;;8.32;100.00;100964.31;4977400;28;20212;-83
2023/03/19 04:17:13;;;;;;;9.17;6.27;;;;;;;8.26;100.00;100958.66;4961261;28;20470;-82
2023/03/19 04:19:38;;;;;;;11.00;6.43;;;;;;;8.24;100.00;100957.19;4961047;28;20038;-83
2023/03/19 04:22:04;;;;;;;10.37;6.13;;;;;;;8.18;100.00;100957.97;4945242;28;20033;-83
2023/03/19 04:24:29;;;;;;;12.90;6.65;;;;;;;8.17;100.00;100967.94;4977546;28;20034;-83
2023/03/19 04:26:55;;;;;;;9.40;5.93;;;;;;;8.14;100.00;100964.81;4961645;28;20037;-83
2023/03/19 04:29:21;;;;;;;9.57;5.88;;;;;;;8.12;100.00;100967.72;4961218;28;20034;-83
2023/03/19 04:31:47;;;;;;;12.48;6.07;;;;;;;8.09;100.00;100968.13;4961365;28;20485;-83
2023/03/19 04:34:12;;;;;;;11.07;6.47;;;;;;;8.10;100.00;100968.94;4977166;28;20038;-83
2023/03/19 04:36:38;;;;;;;14.43;7.35;;;;;;;8.05;100.00;100961.44;4960675;28;20285;-83
2023/03/19 04:39:04;;;;;;;9.50;6.20;;;;;;;8.01;100.00;100960.97;4944922;28;20034;-83
2023/03/19 04:41:29;;;;;;;11.18;6.65;;;;;;;7.98;100.00;100958.66;4994150;28;20044;-83
2023/03/19 04:43:55;;;;;;;11.03;6.43;;;;;;;7.97;100.00;100966.97;4994359;28;20113;-84
2023/03/19 04:46:20;;;;;;;9.50;6.40;;;;;;;7.94;100.00;100965.47;4960854;28;20389;-83
2023/03/19 04:48:46;;;;;;;12.23;6.82;;;;;;;7.93;100.00;100968.38;4961065;28;20537;-83
2023/03/19 04:51:11;;;;;;;9.47;6.20;;;;;;;7.92;100.00;100964.03;4976836;28;20042;-83
2023/03/19 04:53:37;;;;;;;12.07;7.50;;;;;;;7.89;100.00;100962.53;4944733;28;20072;-83
2023/03/19 04:56:03;;;;;;;15.00;6.80;;;;;;;7.88;100.00;100967.13;4994824;28;20113;-83
2023/03/19 04:58:28;;;;;;;11.37;7.30;;;;;;;7.87;100.00;100973.53;4976680;28;20113;-83
2023/03/19 05:00:54;;;;;;;15.67;8.07;;;;;;;7.84;100.00;100971.22;4944732;28;20034;-83
2023/03/19 05:03:20;;;;;;;10.47;7.07;;;;;;;7.82;100.00;100975.97;4960707;28;20034;-84
2023/03/19 05:05:46;;;;;;;14.27;7.95;;;;;;;7.83;100.00;100985.75;4960883;28;20057;-83
2023/03/19 05:08:12;;;;;;;14.43;7.77;;;;;;;7.81;100.00;100986.97;4960658;28;20463;-83
2023/03/19 05:10:38;;;;;;;13.23;7.45;;;;;;;7.76;100.00;100984.03;4944923;28;20444;-83
2023/03/19 05:13:04;;;;;;;15.10;7.35;;;;;;;7.73;100.00;100991.47;4960669;28;20038;-84
2023/03/19 05:15:30;;;;;;;14.93;7.63;;;;;;;7.71;100.00;100987.31;4979231;28;20447;-84
2023/03/19 05:17:55;;;;;;;12.77;7.57;;;;;;;7.68;100.00;100993.94;4964219;28;20026;-83
2023/03/19 05:20:22;;;;;;;14.57;8.00;;;;;;;7.69;100.00;100992.06;4964246;28;20185;-83
2023/03/19 05:22:48;;;;;;;14.63;7.90;;;;;;;7.67;100.00;100992.25;4965336;28;20033;-83
2023/03/19 05:25:13;;;;;;;13.30;7.90;;;;;;;7.67;100.00;100992.25;4980319;28;20038;-83
2023/03/19 05:27:39;;;;;;;17.20;8.13;;;;;;;7.64;100.00;100997.22;4964250;28;20034;-83
2023/03/19 05:30:07;;;;;;;15.30;8.15;;;;;;;7.60;100.00;101001.31;4980814;28;20145;-83
2023/03/19 05:32:32;;;;;;;14.65;7.90;;;;;;;7.55;100.00;101000.03;4980206;28;20033;-83
2023/03/19 05:34:58;;;;;;;15.07;8.27;;;;;;;7.49;100.00;100998.09;4980203;28;20034;-83
2023/03/19 05:37:24;;;;;;;14.80;8.77;;;;;;;7.46;100.00;101001.19;4980640;28;20058;-83
2023/03/19 05:39:53;;;;;;;15.10;7.95;;;;;;;7.44;100.00;101005.94;4980093;28;20030;-82
2023/03/19 05:42:18;;;;;;;18.45;8.95;;;;;;;7.46;100.00;101009.28;4980084;28;20504;-83
2023/03/19 05:44:44;;;;;;;16.45;8.50;;;;;;;7.49;100.00;101013.47;4979882;28;20109;-83
2023/03/19 05:47:11;;;;;;;13.87;8.40;;;;;;;7.47;100.00;101012.81;4964303;28;20048;-82
2023/03/19 05:49:36;;;;;;;14.43;8.50;;;;;;;7.46;100.00;101009.28;4948525;28;20062;-83
2023/03/19 05:52:01;;;;;;;15.23;8.43;;;;;;;7.47;100.00;101015.50;4997393;28;20069;-83
2023/03/19 05:54:27;;;;;;;17.40;8.60;;;;;;;7.47;100.00;101021.75;4997579;28;20460;-83
2023/03/19 05:56:52;;;;;;;16.77;8.00;;;;;;;7.47;100.00;101018.19;4980144;28;20030;-84
2023/03/19 05:59:18;;;;;;;15.20;8.57;;;;;;;7.47;100.00;101019.06;4963669;28;20034;-82
2023/03/19 06:01:44;;;;;;;17.38;9.15;;;;;;;7.47;100.00;101013.66;4963897;28;20089;-82
2023/03/19 06:04:10;;;;;;;19.95;8.85;;;;;;;7.49;100.00;101021.56;4979918;28;20049;-83
2023/03/19 06:06:35;;;;;;;18.60;8.90;;;;;;;7.48;100.00;101027.97;4997084;28;20061;-83
2023/03/19 06:09:01;;;;;;;19.03;9.77;;;;;;;7.50;100.00;101026.78;4979500;28;20537;-82
2023/03/19 06:11:26;;;;;;;18.63;8.40;;;;;;;7.53;100.00;101033.66;4997313;28;20502;-83
2023/03/19 06:13:52;;;;;;;19.17;9.32;;;;;;;7.55;100.00;101037.81;4963725;28;20384;-83
2023/03/19 06:16:17;;;;;;;19.70;9.63;;;;;;;7.58;100.00;101039.31;4963412;28;20076;-82
2023/03/19 06:18:44;;;;;;;17.87;9.47;;;;;;;7.58;100.00;101041.19;4948079;28;20038;-82
2023/03/19 06:21:10;;;;;;;19.92;9.10;;;;;;;7.61;100.00;101044.34;4963298;28;20037;-83
2023/03/19 06:23:35;;;;;;;20.42;10.13;;;;;;;7.63;100.00;101041.44;4963246;28;20039;-84
2023/03/19 06:26:00;;;;;;;21.13;10.50;;;;;;;7.65;100.00;101048.31;4963005;28;20038;-82
2023/03/19 06:28:29;;;;;;;18.60;10.40;;;;;;;7.63;100.00;101046.84;4978584;28;20034;-83
2023/03/19 06:30:54;;;;;;;21.67;10.95;;;;;;;7.67;100.00;101050.84;4996716;28;20033;-83
2023/03/19 06:33:21;;;;;;;17.97;10.57;;;;;;;7.70;100.00;101051.28;4963375;28;20038;-82
2023/03/19 06:35:47;;;;;;;20.75;10.48;;;;;;;7.74;100.00;101054.44;4963204;28;20034;-84
2023/03/19 06:38:13;;;;;;;23.38;10.88;;;;;;;7.75;100.00;101061.53;4979311;28;20095;-83
2023/03/19 06:40:38;;;;;;;21.07;11.13;;;;;;;7.79;100.00;101061.97;4996231;28;20421;-83
2023/03/19 06:43:03;;;;;;;19.03;10.33;;;;;;;7.83;100.00;101065.97;4978559;28;20056;-81
2023/03/19 06:45:29;;;;;;;16.27;10.37;;;;;;;7.84;100.00;101065.78;4963098;28;20465;-82
2023/03/19 06:47:56;;;;;;;18.17;10.25;;;;;;;7.86;100.00;101073.69;4962973;28;20026;-82
2023/03/19 06:50:21;;;;;;;19.52;10.50;;;;;;;7.85;100.00;101069.31;4962845;28;20382;-82
2023/03/19 06:52:47;;;;;;;18.03;10.70;;;;;;;7.85;100.00;101075.56;4978838;28;20037;-82
2023/03/19 06:55:12;;;;;;;21.53;11.17;;;;;;;7.85;100.00;101072.00;4962072;28;20065;-82
2023/03/19 06:57:38;;;;;;;21.23;11.02;;;;;;;7.84;100.00;101073.88;4978574;28;20548;-82
2023/03/19 07:00:04;;;;;;;19.83;10.67;;;;;;;7.88;100.00;101072.47;4995676;28;20026;-82
2023/03/19 07:02:30;;;;;;;22.75;11.00;;;;;;;7.94;100.00;101078.94;4963197;28;20038;-82
2023/03/19 07:04:55;;;;;;;22.63;11.10;;;;;;;7.97;100.00;101078.59;4962675;28;20054;-82
2023/03/19 07:07:21;;;;;;;21.83;11.67;;;;;;;8.01;100.00;101084.44;4961923;28;20030;-82
2023/03/19 07:09:46;;;;;;;20.38;12.15;;;;;;;8.03;100.00;101091.31;4978783;28;20117;-82
2023/03/19 07:12:12;;;;;;;26.70;12.17;;;;;;;8.08;100.00;101094.28;4978232;28;20046;-83
2023/03/19 07:14:37;;;;;;;24.23;12.07;;;;;;;8.11;100.00;101086.81;4977948;28;20114;-83
2023/03/19 07:17:03;;;;;;;22.23;12.40;;;;;;;8.16;100.00;101092.47;4962297;28;20030;-81
2023/03/19 07:19:28;;;;;;;23.30;11.80;;;;;;;8.22;100.00;101097.97;4978039;28;20717;-81
2023/03/19 07:21:54;;;;;;;24.80;12.47;;;;;;;8.31;100.00;101100.50;4961812;28;20030;-82
2023/03/19 07:24:19;;;;;;;22.57;12.10;;;;;;;8.36;100.00;101103.47;4962521;28;20080;-81
2023/03/19 07:26:45;;;;;;;22.35;12.30;;;;;;;8.42;100.00;101106.22;4978770;28;20081;-81
2023/03/19 07:29:11;;;;;;;22.83;12.43;;;;;;;8.49;100.00;101110.88;4945699;28;20031;-81
2023/03/19 07:31:36;;;;;;;23.60;12.55;;;;;;;8.55;100.00;101113.66;4977947;28;20030;-81
2023/03/19 07:34:02;;;;;;;22.67;12.40;;;;;;;8.64;100.00;101113.53;4962201;28;20474;-82
2023/03/19 07:36:27;;;;;;;24.20;12.27;;;;;;;8.69;100.00;101116.47;4995535;28;20161;-82
2023/03/19 07:38:53;;;;;;;21.00;11.73;;;;;;;8.74;100.00;101117.56;4961363;28;20085;-83
2023/03/19 07:41:18;;;;;;;26.80;11.60;;;;;;;8.80;100.00;101121.34;4977873;28;20529;-82
2023/03/19 07:43:44;;;;;;;22.27;10.27;;;;;;;8.86;100.00;101119.69;4961423;28;20040;-82
2023/03/19 07:46:10;;;;;;;21.30;10.68;;;;;;;9.00;100.00;101123.34;4978402;28;20038;-81
2023/03/19 07:48:35;;;;;;;18.42;9.35;;;;;;;9.06;100.00;101122.53;4961570;28;20031;-82
2023/03/19 07:51:01;;;;;;;18.17;9.50;;;;;;;9.13;100.00;101121.53;4961698;28;20038;-82
2023/03/19 07:53:26;;;;;;;18.20;8.10;;;;;;;9.20;100.00;101135.13;4994476;28;20030;-82
2023/03/19 07:55:52;;;;;;;19.13;8.27;;;;;;;9.26;100.00;101128.09;4978213;28;20383;-82
2023/03/19 07:58:20;;;;;;;16.70;7.57;;;;;;;9.25;100.00;101132.66;4961789;28;20042;-83
2023/03/19 08:00:46;;;;;;;17.45;6.90;;;;;;;9.20;100.00;101132.44;4978017;28;20030;-83
2023/03/19 08:03:11;;;;;;;19.75;7.40;;;;;;;9.16;100.00;101135.75;4977473;28;20030;-83
2023/03/19 08:05:37;;;;;;;17.00;5.87;;;;;;;9.13;100.00;101139.66;4994988;28;20085;-83
2023/03/19 08:08:02;;;;;;;14.77;6.67;;;;;;;9.10;100.00;101131.94;4994624;28;20030;-83
2023/03/19 08:10:28;;;;;;;18.02;6.93;;;;;;;9.08;100.00;101134.84;4961282;28;20568;-83
2023/03/19 08:12:53;;;;;;;11.77;6.20;;;;;;;9.09;100.00;101141.94;4945319;28;20035;-83
2023/03/19 08:15:19;;;;;;;16.57;6.40;;;;;;;9.08;100.00;101151.09;4961280;28;20037;-83
2023/03/19 08:17:44;;;;;;;14.15;6.93;;;;;;;9.06;100.00;101144.19;4977199;28;20470;-83
2023/03/19 08:20:15;;;;;;;17.10;7.33;;;;;;;9.08;100.00;101142.13;4977227;28;20026;-83
2023/03/19 08:22:41;;;;;;;20.83;8.00;;;;;;;9.07;100.00;101148.59;4977418;28;20037;-83
2023/03/19 08:25:08;;;;;;;15.77;7.43;;;;;;;9.04;100.00;101144.41;4961427;28;20038;-82
2023/03/19 08:27:34;;;;;;;19.35;7.38;;;;;;;9.06;100.00;101155.84;4961150;28;20030;-83
2023/03/19 08:30:01;;;;;;;20.25;7.75;;;;;;;9.10;100.00;101153.59;4960953;28;20125;-82
2023/03/19 08:32:27;;;;;;;21.17;7.47;;;;;;;9.16;100.00;101158.22;4977261;28;20124;-82
2023/03/19 08:34:52;;;;;;;19.23;7.47;;;;;;;9.20;100.00;101159.50;4944909;28;20050;-83
2023/03/19 08:37:18;;;;;;;19.40;7.53;;;;;;;9.24;100.00;101158.06;4977074;28;20030;-82
2023/03/19 08:39:43;;;;;;;21.70;6.68;;;;;;;9.29;100.00;101152.88;4976525;28;20053;-83
2023/03/19 08:42:09;;;;;;;16.80;6.70;;;;;;;9.44;100.00;101154.63;4961159;28;20033;-83
2023/03/19 08:44:34;;;;;;;20.57;7.13;;;;;;;9.69;100.00;101165.81;4976986;28;20034;-83
2023/03/19 08:47:00;;;;;;;19.42;6.38;;;;;;;10.06;100.00;101174.47;4977171;28;20066;-82
2023/03/19 08:49:25;;;;;;;15.13;5.77;;;;;;;10.31;100.00;101169.31;4976016;28;20035;-83
2023/03/19 08:51:51;;;;;;;21.07;6.17;;;;;;;10.44;100.00;101170.44;4976496;28;20462;-83
2023/03/19 08:54:16;;;;;;;13.63;5.40;;;;;;;10.53;100.00;101172.72;4976632;28;20061;-82
2023/03/19 08:56:42;;;;;;;16.10;4.72;;;;;;;10.62;100.00;101177.97;4960808;28;20501;-84
2023/03/19 08:59:07;;;;;;;13.63;5.33;;;;;;;10.63;100.00;101174.19;4976684;28;20030;-82
2023/03/19 09:01:33;;;;;;;15.45;5.20;;;;;;;10.69;100.00;101186.94;4976759;28;20065;-82
2023/03/19 09:03:58;;;;;;;19.60;6.03;;;;;;;10.75;100.00;101183.41;4976986;28;20459;-83
2023/03/19 09:06:24;;;;;;;11.60;4.87;;;;;;;10.91;100.00;101175.88;4976647;28;20124;-84
2023/03/19 09:08:49;;;;;;;17.67;5.43;;;;;;;11.03;100.00;101193.22;4976608;28;20479;-82
2023/03/19 09:11:16;;;;;;;17.73;4.77;;;;;;;11.10;100.00;101187.75;4960512;28;20466;-82
2023/03/19 09:13:41;;;;;;;21.42;5.05;;;;;;;11.21;100.00;101193.38;4960909;28;20038;-82
2023/03/19 09:16:07;;;;;;;18.03;4.87;;;;;;;11.45;100.00;101187.50;4961087;28;20525;-82
2023/03/19 09:18:33;;;;;;;15.68;4.38;;;;;;;11.50;100.00;101191.25;4976731;28;20506;-82
2023/03/19 09:20:59;;;;;;;12.82;4.55;;;;;;;11.24;100.00;101198.41;4976381;28;20482;-82
2023/03/19 09:23:25;;;;;;;14.40;4.40;;;;;;;11.02;100.00;101199.69;4976827;28;20125;-82
2023/03/19 09:25:50;;;;;;;16.27;4.80;;;;;;;10.86;100.00;101201.75;4976730;28;20058;-82
2023/03/19 09:28:16;;;;;;;20.83;5.80;;;;;;;10.76;100.00;101198.63;4960389;28;20053;-82
2023/03/19 09:30:42;;;;;;;16.33;5.33;;;;;;;10.65;100.00;101204.69;4960514;28;20475;-82
2023/03/19 09:33:07;;;;;;;20.38;5.30;;;;;;;10.65;100.00;101201.97;4976727;28;20121;-81
2023/03/19 09:35:33;;;;;;;14.80;5.00;;;;;;;10.62;100.00;101214.06;4944323;28;20466;-81
2023/03/19 09:37:59;;;;;;;15.20;4.90;;;;;;;10.71;100.00;101215.53;4976481;28;20038;-82
2023/03/19 09:40:34;;;;;;;17.13;4.57;;;;;;;10.75;100.00;101215.13;4993795;28;20058;-82
2023/03/19 09:43:07;;;;;;;14.27;5.78;;;;;;;10.87;100.00;101218.91;4994392;28;20034;-82
2023/03/19 09:45:33;;;;;;;14.13;5.10;;;;;;;11.04;100.00;101213.88;4994106;28;20034;-83
2023/03/19 09:48:06;;;;;;;17.48;5.70;;;;;;;11.06;100.00;101212.63;4975905;28;20439;-82
2023/03/19 09:50:36;;;;;;;15.88;6.25;;;;;;;10.97;100.00;101218.47;4993631;28;20038;-81
2023/03/19 09:53:28;;;;;;;18.50;5.97;;;;;;;10.98;100.00;101217.44;4976531;28;20033;-82
2023/03/19 09:55:57;;;;;;;15.57;5.63;;;;;;;11.17;100.00;101213.84;4975630;28;20038;-82
2023/03/19 09:58:35;;;;;;;14.63;5.28;;;;;;;11.59;100.00;101216.31;4976027;28;20097;-82
2023/03/19 10:01:03;;;;;;;14.65;4.55;;;;;;;11.96;100.00;101207.63;4994862;28;20084;-82
2023/03/19 10:03:37;;;;;;;14.80;4.82;;;;;;;12.33;100.00;101216.88;4963712;28;20034;-82
2023/03/19 10:06:31;;;;;;;12.32;4.05;;;;;;;12.76;98.69;101216.16;4996962;28;20034;-82
2023/03/19 10:09:22;;;;;;;14.67;4.13;;;;;;;13.12;94.17;101220.06;4998077;28;20041;-82
2023/03/19 10:11:55;;;;;;;13.75;3.90;;;;;;;13.42;93.16;101218.53;4997118;28;20034;-82
2023/03/19 10:14:23;;;;;;;11.85;4.13;;;;;;;13.73;91.85;101220.31;4996970;28;20061;-81
2023/03/19 10:16:54;;;;;;;18.83;4.63;;;;;;;13.90;88.65;101223.25;4979428;28;20501;-82
2023/03/19 10:19:49;;;;;;;15.77;4.05;;;;;;;14.03;89.73;101225.00;4979457;28;20428;-82
2023/03/19 10:22:20;;;;;;;18.57;4.20;;;;;;;14.00;88.28;101222.72;4978562;28;20100;-82
2023/03/19 10:24:47;;;;;;;12.68;3.75;;;;;;;14.32;86.10;101226.09;4979675;28;20473;-82
2023/03/19 10:27:15;;;;;;;16.73;4.00;;;;;;;14.47;85.17;101225.66;4979336;28;20072;-81
2023/03/19 10:29:42;;;;;;;11.05;3.00;;;;;;;14.69;85.06;101225.16;4978888;28;20026;-82
2023/03/19 10:32:27;;;;;;;13.15;3.60;;;;;;;14.84;81.41;101228.28;4996665;28;20034;-82
2023/03/19 10:34:53;;;;;;;12.50;3.23;;;;;;;14.82;83.46;101221.38;4979422;28;20038;-82
2023/03/19 10:37:20;;;;;;;11.32;3.20;;;;;;;14.74;80.93;101228.03;4963008;28;20437;-82
2023/03/19 10:39:48;;;;;;;13.38;2.83;;;;;;;14.50;81.00;101227.94;4996397;28;20038;-82
2023/03/19 10:42:32;;;;;;;10.60;3.03;;;;;;;14.18;82.13;101236.31;4996368;28;20030;-82
2023/03/19 10:45:12;;;;;;;10.93;2.80;;;;;;;14.30;84.76;101227.38;4996397;28;20042;-82
2023/03/19 10:47:39;;;;;;;8.05;2.85;;;;;;;14.56;82.18;101237.91;4979632;28;20125;-84
2023/03/19 10:50:05;;;;;;;15.10;3.75;;;;;;;14.94;81.51;101238.66;4978499;28;20046;-83
2023/03/19 10:52:35;;;;;;;11.63;3.33;;;;;;;15.22;78.66;101243.44;4978838;28;20043;-83
2023/03/19 10:55:16;;;;;;;10.40;3.20;;;;;;;15.59;77.91;101237.72;4995962;28;20046;-83
2023/03/19 10:57:44;;;;;;;9.40;2.90;;;;;;;15.65;75.42;101241.41;4978860;28;20418;-84
2023/03/19 11:00:19;;;;;;;13.50;3.15;;;;;;;15.68;75.78;101245.53;4978310;28;20030;-83
2023/03/19 11:02:52;;;;;;;9.40;2.90;;;;;;;15.95;75.38;101246.69;4978710;28;20026;-83
2023/03/19 11:05:20;;;;;;;10.75;2.85;;;;;;;15.83;72.93;101245.91;4995982;28;20036;-82
2023/03/19 11:08:15;;;;;;;10.40;2.85;;;;;;;15.52;75.61;101247.13;4978354;28;20041;-82
2023/03/19 11:10:47;;;;;;;8.83;2.67;;;;;;;15.09;75.55;101247.22;4995946;28;20034;-83
2023/03/19 11:13:23;;;;;;;8.20;3.22;;;;;;;15.04;78.29;101255.28;4976979;28;20049;-82
2023/03/19 11:15:49;;;;;;;11.13;3.03;;;;;;;15.03;77.41;101248.16;4995765;28;20053;-82
2023/03/19 11:18:22;;;;;;;15.07;4.30;;;;;;;14.87;77.62;101251.56;4962126;28;20035;-82
2023/03/19 11:21:05;;;;;;;11.97;5.77;;;;;;;14.61;79.72;101245.44;4978471;28;20030;-82